Terminal Aerodrome Forecast
Issued by NWS Central Illinois

Home | Current Version | Previous Version | Text Only | Print | Product List | Glossary On
Versions: 1 2 3 4 5 6 7 8 9 10 11 12 13 14 15 16 17 18 19
000
FTUS43 KILX 050535
TAFSPI
TAF
KSPI 050535Z 0506/0606 VRB06KT P6SM VCSH BKN060
     FM051500 21011KT P6SM SCT060
     FM060000 17005KT P6SM SCT060=

USA.gov is the U.S. government's official web portal to all federal, state and local government web resources and services.